Wildwood, New Jersey
Current Conditions -  °F | °C
As of 8:35 PM on Saturday 25 Oct 2014 (Local Time) from KWWD Reporting Station
Clear Clear  
Wind Chill: 61°   Ceiling: Unl
Heat Index: 61°   Visibility: 10mi
Dew Point: 45°   Wind: 12mph
Humidity: 55%   Direction: 210°SSW
Pressure: 29.74"   Gusts: NA
Location:  38.99°N, 74.81°W
Report Text: KWWD 260035Z AUTO 21010KT 10SM CLR 16/07 A2974 RMK AO1
Loading
Personal Weather Stations






























Interactive Weather Map
Tropical Storm Tracking
New forecast layout! Learn more

10-Day Weather Forecast

Advertisements
Track Severe Weather on mobile